Time;durP1;ratioP1;P1;durP2;ratioP2;P2;SDS_P1;SDS_P2;PMS_P1;PMS_P2;Temp;Humidity;BMP_temperature;BMP_pressure;BME280_temperature;BME280_humidity;BME280_pressure;Samples;Min_cycle;Max_cycle;Signal;HPM_P1;HPM_P2
2022/01/25 00:28:26;;;;;;;9.40;7.68;;;0.10;99.90;;;;;;5014897;28;20526;-73
2022/01/25 00:33:25;;;;;;;10.27;6.55;;;0.10;99.90;;;;;;5015080;28;20182;-73
2022/01/25 00:35:51;;;;;;;8.15;4.88;;;0.10;99.90;;;;;;5015161;28;20533;-74
2022/01/25 00:38:16;;;;;;;7.90;5.37;;;0.10;99.90;;;;;;5015034;28;20171;-73
2022/01/25 00:40:42;;;;;;;2.97;2.77;;;0.10;99.90;;;;;;5013925;28;20190;-72
2022/01/25 00:43:08;;;;;;;5.90;4.43;;;0.10;99.90;;;;;;5015027;28;20174;-73
2022/01/25 00:45:33;;;;;;;3.70;3.40;;;0.10;99.90;;;;;;5014871;28;20177;-73
2022/01/25 00:48:03;;;;;;;21.97;4.30;;;0.10;99.90;;;;;;5014419;28;20179;-72
2022/01/25 00:50:36;;;;;;;6.20;5.60;;;0.10;99.90;;;;;;5014777;28;20631;-71
2022/01/25 00:55:31;;;;;;;9.20;6.50;;;0.10;99.90;;;;;;5015405;28;20200;-72
2022/01/25 00:57:57;;;;;;;5.65;4.25;;;0.10;99.90;;;;;;5013914;28;20779;-73
2022/01/25 01:00:23;;;;;;;5.93;3.83;;;0.00;99.90;;;;;;5014457;28;20644;-72
2022/01/25 01:02:49;;;;;;;6.68;4.55;;;0.00;99.90;;;;;;5014242;28;20225;-72
2022/01/25 01:05:15;;;;;;;6.47;5.83;;;0.00;99.90;;;;;;5014441;28;20625;-72
2022/01/25 01:07:42;;;;;;;6.20;5.60;;;-0.10;99.90;;;;;;5012947;28;20528;-71
2022/01/25 01:10:08;;;;;;;7.13;5.07;;;-0.10;99.90;;;;;;5014314;28;20252;-72
2022/01/25 01:31:54;;;;;;;4.78;4.47;;;-0.20;99.90;;;;;;5014399;28;20625;-72
2022/01/25 01:40:02;;;;;;;11.18;4.63;;;-0.20;99.90;;;;;;5013409;28;20201;-73
2022/01/25 01:47:35;;;;;;;5.03;4.57;;;-0.20;99.90;;;;;;5013391;28;20187;-71
2022/01/25 01:50:02;;;;;;;5.60;3.45;;;-0.30;99.90;;;;;;5013447;28;20451;-72
2022/01/25 01:52:30;;;;;;;12.60;4.20;;;-0.30;99.90;;;;;;5012845;28;20229;-72
2022/01/25 01:54:57;;;;;;;4.97;4.50;;;-0.30;99.90;;;;;;5013355;28;20174;-73
2022/01/25 01:57:22;;;;;;;7.82;4.68;;;-0.30;99.90;;;;;;5013772;28;20197;-71
2022/01/25 01:59:48;;;;;;;8.07;5.47;;;-0.40;99.90;;;;;;5013143;28;20292;-73
2022/01/25 02:02:15;;;;;;;5.00;4.13;;;-0.40;99.90;;;;;;5028283;28;20178;-72
2022/01/25 02:04:40;;;;;;;9.07;6.45;;;-0.50;99.90;;;;;;5013769;28;20257;-72
2022/01/25 02:07:06;;;;;;;8.27;5.23;;;-0.50;99.90;;;;;;5013417;28;20610;-73
2022/01/25 02:09:33;;;;;;;10.57;5.87;;;-0.50;99.90;;;;;;5029961;28;20204;-73
2022/01/25 02:11:59;;;;;;;11.32;6.32;;;-0.40;99.90;;;;;;5017398;28;20579;-72
2022/01/25 02:14:24;;;;;;;7.10;5.03;;;-0.40;99.90;;;;;;5017599;28;20171;-72
2022/01/25 02:24:49;;;;;;;4.55;4.07;;;-0.40;99.90;;;;;;4998148;28;20200;-73
2022/01/25 02:27:15;;;;;;;8.30;5.80;;;-0.40;99.90;;;;;;4997878;28;20171;-73
2022/01/25 02:29:42;;;;;;;10.10;7.55;;;-0.40;99.90;;;;;;4996186;28;20208;-72
2022/01/25 02:32:08;;;;;;;9.10;5.47;;;-0.40;99.90;;;;;;5012352;28;20281;-72
2022/01/25 02:34:34;;;;;;;9.95;5.82;;;-0.40;99.90;;;;;;4997875;28;20168;-72
2022/01/25 02:37:05;;;;;;;5.97;4.32;;;-0.40;99.90;;;;;;5012588;28;20582;-72
2022/01/25 02:39:32;;;;;;;6.63;5.93;;;-0.40;99.90;;;;;;5016421;28;20190;-73
2022/01/25 02:41:58;;;;;;;3.53;3.33;;;-0.40;99.90;;;;;;5016665;28;20193;-72
2022/01/25 02:44:27;;;;;;;10.70;4.53;;;-0.40;99.90;;;;;;5016307;28;20182;-72
2022/01/25 02:49:34;;;;;;;4.90;4.50;;;-0.40;99.90;;;;;;5016428;28;20205;-73
2022/01/25 02:52:03;;;;;;;13.50;5.70;;;-0.40;99.90;;;;;;5014436;28;20640;-73
2022/01/25 02:54:29;;;;;;;6.10;4.32;;;-0.50;99.90;;;;;;5015427;28;20216;-73
2022/01/25 02:56:55;;;;;;;4.30;3.90;;;-0.50;99.90;;;;;;5015525;28;20733;-71
2022/01/25 02:59:21;;;;;;;7.80;4.93;;;-0.50;99.90;;;;;;5014747;28;20198;-71
2022/01/25 03:01:48;;;;;;;8.30;6.47;;;-0.60;99.90;;;;;;5015393;28;20238;-71
2022/01/25 03:04:17;;;;;;;6.60;4.03;;;-0.50;99.90;;;;;;5015246;28;20170;-73
2022/01/25 03:06:43;;;;;;;10.32;5.35;;;-0.50;99.90;;;;;;5015232;28;20183;-71
2022/01/25 03:09:09;;;;;;;3.55;3.35;;;-0.50;99.90;;;;;;5015167;28;20227;-73
2022/01/25 03:11:35;;;;;;;4.40;3.73;;;-0.50;99.90;;;;;;5014921;28;20565;-73
2022/01/25 03:14:04;;;;;;;5.60;4.23;;;-0.50;99.90;;;;;;5013001;28;20261;-70
2022/01/25 03:17:06;;;;;;;6.97;4.85;;;-0.60;99.90;;;;;;5015200;28;20407;-73
2022/01/25 03:22:14;;;;;;;14.27;7.53;;;-0.50;99.90;;;;;;5015142;28;20553;-71
2022/01/25 03:24:41;;;;;;;9.90;9.02;;;-0.60;99.90;;;;;;5013656;28;20194;-72
2022/01/25 03:27:07;;;;;;;4.57;4.10;;;-0.50;99.90;;;;;;5015174;28;20180;-71
2022/01/25 03:29:32;;;;;;;6.27;5.33;;;-0.50;99.90;;;;;;5012653;28;20696;-71
2022/01/25 03:31:58;;;;;;;5.97;4.40;;;-0.50;99.90;;;;;;5013741;28;20291;-72
2022/01/25 03:34:24;;;;;;;11.00;7.17;;;-0.60;99.90;;;;;;5015063;28;20639;-72
2022/01/25 03:36:51;;;;;;;4.90;4.60;;;-0.60;99.90;;;;;;5015165;28;20172;-71
2022/01/25 03:39:16;;;;;;;6.40;5.82;;;-0.60;99.90;;;;;;5014372;28;20461;-71
2022/01/25 03:41:42;;;;;;;16.37;6.13;;;-0.50;99.90;;;;;;5014808;28;20667;-72
2022/01/25 03:44:08;;;;;;;12.83;7.50;;;-0.60;99.90;;;;;;5013287;28;20211;-72
2022/01/25 03:51:45;;;;;;;13.30;6.80;;;-0.50;99.90;;;;;;4977046;28;1110380;-73
2022/01/25 03:54:12;;;;;;;5.73;5.03;;;-0.50;99.90;;;;;;5015469;28;20625;-71
2022/01/25 03:56:38;;;;;;;11.38;6.32;;;-0.50;99.90;;;;;;5015603;28;20511;-73
2022/01/25 03:59:05;;;;;;;6.57;5.28;;;-0.50;99.90;;;;;;5015291;28;20255;-71
2022/01/25 04:01:31;;;;;;;12.90;6.65;;;-0.50;99.90;;;;;;5015538;28;20166;-72
2022/01/25 04:04:01;;;;;;;10.82;5.65;;;-0.50;99.90;;;;;;5015457;28;20208;-72
2022/01/25 04:06:29;;;;;;;5.35;4.45;;;-0.50;99.90;;;;;;4998432;28;20190;-72
2022/01/25 04:08:56;;;;;;;7.43;4.13;;;-0.60;99.90;;;;;;5014599;28;20194;-72
2022/01/25 04:11:22;;;;;;;9.40;5.72;;;-0.70;99.90;;;;;;5015138;28;20199;-72
2022/01/25 04:13:51;;;;;;;10.02;5.90;;;-0.70;99.90;;;;;;5014584;28;20178;-71
2022/01/25 04:16:22;;;;;;;7.57;5.20;;;-0.70;99.90;;;;;;5015249;28;20521;-70
2022/01/25 04:27:08;;;;;;;12.00;6.63;;;-0.70;99.90;;;;;;5013065;28;20229;-71
2022/01/25 04:29:33;;;;;;;9.45;6.45;;;-0.80;99.90;;;;;;5012267;28;20608;-72
2022/01/25 04:32:00;;;;;;;8.60;5.20;;;-0.80;99.90;;;;;;5011830;28;20206;-72
2022/01/25 04:35:09;;;;;;;7.45;6.22;;;-0.80;99.90;;;;;;4996254;28;20432;-72
2022/01/25 04:51:12;;;;;;;8.80;5.28;;;-0.90;99.90;;;;;;5012339;28;20367;-73
2022/01/25 04:53:56;;;;;;;4.00;3.47;;;-0.80;99.90;;;;;;5012384;28;20167;-71
2022/01/25 04:56:49;;;;;;;14.45;9.20;;;-0.80;99.90;;;;;;5012652;28;20174;-72
2022/01/25 04:59:32;;;;;;;9.07;6.22;;;-0.90;99.90;;;;;;5013935;28;20270;-70
2022/01/25 05:02:31;;;;;;;9.85;6.10;;;-0.80;99.90;;;;;;5014585;28;20167;-70
2022/01/25 05:04:50;;;;;;;7.18;4.07;;;-0.80;99.90;;;;;;5014278;28;20213;-72
2022/01/25 05:09:47;;;;;;;5.75;5.25;;;-0.70;99.90;;;;;;5013640;28;20561;-71
2022/01/25 05:12:14;;;;;;;7.57;6.80;;;-0.80;99.90;;;;;;5014252;28;20196;-71
2022/01/25 05:14:57;;;;;;;11.50;3.90;;;-0.80;99.90;;;;;;5012656;28;20186;-71
2022/01/25 05:17:35;;;;;;;8.88;6.28;;;-0.80;99.90;;;;;;5014055;28;20175;-72
2022/01/25 05:22:45;;;;;;;7.35;4.95;;;-0.90;99.90;;;;;;5014254;28;20181;-72
2022/01/25 05:25:10;;;;;;;7.63;4.37;;;-0.90;99.90;;;;;;5014160;28;20537;-72
2022/01/25 05:27:36;;;;;;;8.67;4.73;;;-0.90;99.90;;;;;;5013523;28;20659;-76
2022/01/25 05:30:03;;;;;;;7.40;4.70;;;-0.90;99.90;;;;;;5026575;28;20204;-71
2022/01/25 05:32:32;;;;;;;3.10;2.88;;;-1.00;99.90;;;;;;5018864;28;20204;-72
2022/01/25 05:34:58;;;;;;;9.90;7.45;;;-1.00;99.90;;;;;;5012858;28;20223;-71
2022/01/25 05:37:23;;;;;;;5.28;3.55;;;-1.00;99.90;;;;;;5013859;28;20176;-71
2022/01/25 05:39:51;;;;;;;9.23;6.17;;;-1.00;99.90;;;;;;5013425;28;20190;-71
2022/01/25 05:45:37;;;;;;;6.00;5.38;;;-1.00;99.90;;;;;;5013700;28;20233;-71
2022/01/25 05:48:03;;;;;;;4.65;3.22;;;-1.00;99.90;;;;;;5013320;28;20234;-73
2022/01/25 05:50:28;;;;;;;4.77;4.37;;;-1.00;99.90;;;;;;5012142;28;20621;-72
2022/01/25 05:52:54;;;;;;;3.63;3.33;;;-1.00;99.90;;;;;;5013450;28;20454;-72
2022/01/25 05:55:19;;;;;;;10.07;4.40;;;-1.10;99.90;;;;;;5013861;28;20625;-72
2022/01/25 05:57:45;;;;;;;5.40;4.50;;;-1.10;99.90;;;;;;5012873;28;20262;-72
2022/01/25 06:00:11;;;;;;;7.90;4.20;;;-1.10;99.90;;;;;;5013585;28;20197;-72
2022/01/25 06:02:37;;;;;;;7.70;5.00;;;-1.10;99.90;;;;;;5013517;28;20194;-70
2022/01/25 06:05:04;;;;;;;6.70;4.43;;;-1.10;99.90;;;;;;5013647;28;20403;-71
2022/01/25 06:07:30;;;;;;;5.38;4.75;;;-1.20;99.90;;;;;;5013290;28;20708;-71
2022/01/25 06:09:55;;;;;;;4.53;3.97;;;-1.10;99.90;;;;;;5012002;28;20289;-71
2022/01/25 06:12:21;;;;;;;9.13;3.33;;;-1.20;99.90;;;;;;5013441;28;20214;-73
2022/01/25 06:14:48;;;;;;;18.87;6.97;;;-1.10;99.90;;;;;;5013105;28;20587;-72
2022/01/25 06:17:14;;;;;;;8.82;6.10;;;-1.20;99.90;;;;;;5013722;28;20172;-72
2022/01/25 06:19:41;;;;;;;3.87;3.50;;;-1.20;99.90;;;;;;5013142;28;20684;-72
2022/01/25 06:22:06;;;;;;;2.42;2.25;;;-1.20;99.90;;;;;;5014121;28;20178;-73
2022/01/25 06:24:32;;;;;;;5.47;5.00;;;-1.20;99.90;;;;;;5013439;28;20179;-72
2022/01/25 06:26:57;;;;;;;6.30;4.07;;;-1.20;99.90;;;;;;5014022;28;20180;-71
2022/01/25 06:29:23;;;;;;;4.73;4.20;;;-1.20;99.90;;;;;;5012557;28;20266;-70
2022/01/25 06:31:49;;;;;;;5.00;4.60;;;-1.20;99.90;;;;;;5013130;28;20565;-72
2022/01/25 06:34:18;;;;;;;12.73;5.50;;;-1.20;99.90;;;;;;5012013;28;20511;-71
2022/01/25 06:36:46;;;;;;;10.57;4.47;;;-1.20;99.90;;;;;;5011923;28;20169;-70
2022/01/25 06:39:14;;;;;;;5.97;4.82;;;-1.20;99.90;;;;;;5012768;28;20197;-72
2022/01/25 06:41:40;;;;;;;8.10;6.20;;;-1.30;99.90;;;;;;5013201;28;20237;-72
2022/01/25 06:44:06;;;;;;;5.93;4.60;;;-1.20;99.90;;;;;;5011562;28;20195;-71
2022/01/25 06:46:32;;;;;;;7.63;4.93;;;-1.20;99.90;;;;;;5012331;28;20441;-71
2022/01/25 06:48:58;;;;;;;6.60;6.10;;;-1.20;99.90;;;;;;5012453;28;20224;-71
2022/01/25 06:51:23;;;;;;;5.20;4.80;;;-1.20;99.90;;;;;;5011656;28;20574;-72
2022/01/25 06:53:49;;;;;;;9.47;5.03;;;-1.20;99.90;;;;;;5011239;28;20420;-72
2022/01/25 06:56:15;;;;;;;7.57;5.10;;;-1.20;99.90;;;;;;5015895;28;20217;-71
2022/01/25 06:58:42;;;;;;;5.97;5.47;;;-1.20;99.90;;;;;;5016300;28;20195;-71
2022/01/25 07:01:08;;;;;;;5.25;4.85;;;-1.20;99.90;;;;;;5016630;28;20181;-71
2022/01/25 07:03:35;;;;;;;5.63;4.78;;;-1.30;99.90;;;;;;5014986;28;20284;-71
2022/01/25 07:06:01;;;;;;;9.10;7.43;;;-1.30;99.90;;;;;;5030938;28;20202;-72
2022/01/25 07:08:28;;;;;;;7.03;4.10;;;-1.20;99.90;;;;;;5016536;28;20614;-72
2022/01/25 07:10:54;;;;;;;6.72;5.47;;;-1.20;99.90;;;;;;5016568;28;20179;-72
2022/01/25 07:13:20;;;;;;;5.72;4.68;;;-1.20;99.90;;;;;;5014992;28;20237;-71
2022/01/25 07:15:46;;;;;;;8.65;5.05;;;-1.20;99.90;;;;;;5016665;28;20183;-71
2022/01/25 07:18:12;;;;;;;7.93;4.73;;;-1.20;99.90;;;;;;5015699;28;20176;-72
2022/01/25 07:20:37;;;;;;;6.73;5.27;;;-1.20;99.90;;;;;;5016246;28;20262;-72
2022/01/25 07:23:04;;;;;;;10.47;6.17;;;-1.10;99.90;;;;;;5015892;28;20201;-71
2022/01/25 07:25:30;;;;;;;9.55;8.35;;;-1.10;99.90;;;;;;5014824;28;20187;-71
2022/01/25 07:27:56;;;;;;;4.37;4.00;;;-1.10;99.90;;;;;;5014066;28;20182;-71
2022/01/25 07:30:22;;;;;;;5.07;4.78;;;-1.10;99.90;;;;;;5016126;28;20203;-71
2022/01/25 07:32:49;;;;;;;9.27;4.17;;;-1.00;99.90;;;;;;5015910;28;20201;-72
2022/01/25 07:35:15;;;;;;;5.82;5.13;;;-0.90;99.90;;;;;;5014381;28;20179;-72
2022/01/25 07:37:41;;;;;;;7.65;6.32;;;-0.70;99.90;;;;;;4997639;28;20195;-72
2022/01/25 07:40:08;;;;;;;5.82;4.82;;;-0.60;99.90;;;;;;5015932;28;20541;-75
2022/01/25 07:42:36;;;;;;;7.20;5.60;;;-0.40;99.90;;;;;;5015653;28;20174;-73
2022/01/25 07:45:08;;;;;;;13.45;8.00;;;-0.10;99.90;;;;;;5015847;28;20332;-72
2022/01/25 07:47:36;;;;;;;14.07;6.78;;;0.20;99.90;;;;;;5015354;28;20182;-71
2022/01/25 07:50:03;;;;;;;17.98;12.52;;;0.60;99.90;;;;;;5015491;28;20194;-72
2022/01/25 07:52:29;;;;;;;24.77;8.10;;;0.90;99.90;;;;;;5015461;28;20598;-71
2022/01/25 07:54:56;;;;;;;10.47;9.47;;;1.20;99.90;;;;;;5014325;28;20373;-72
2022/01/25 07:57:22;;;;;;;24.33;10.70;;;1.50;99.90;;;;;;5015196;28;20513;-72
2022/01/25 07:59:48;;;;;;;21.17;11.13;;;1.80;99.90;;;;;;5015046;28;20716;-72
2022/01/25 08:02:17;;;;;;;20.37;10.80;;;2.00;99.90;;;;;;5014669;28;20182;-73
2022/01/25 08:04:43;;;;;;;23.33;12.32;;;2.20;99.90;;;;;;5015189;28;20491;-72
2022/01/25 08:07:09;;;;;;;21.70;10.77;;;2.40;99.90;;;;;;5014006;28;20174;-70
2022/01/25 08:09:35;;;;;;;12.95;7.88;;;2.50;99.90;;;;;;5014839;28;20628;-72
2022/01/25 08:12:05;;;;;;;19.70;10.27;;;2.50;99.90;;;;;;5013769;28;20225;-74
2022/01/25 08:14:31;;;;;;;16.17;10.30;;;2.50;99.90;;;;;;5015332;28;20258;-70
2022/01/25 08:16:57;;;;;;;14.35;9.23;;;2.80;99.90;;;;;;5013368;28;20187;-71
2022/01/25 08:19:23;;;;;;;9.60;8.70;;;2.90;99.90;;;;;;5014551;28;20194;-71
2022/01/25 08:21:50;;;;;;;10.67;7.53;;;2.90;99.90;;;;;;5015588;28;20180;-72
2022/01/25 08:24:20;;;;;;;9.10;8.18;;;2.80;99.90;;;;;;5015018;28;20186;-72
2022/01/25 08:26:47;;;;;;;11.77;8.07;;;2.90;99.90;;;;;;5014978;28;20318;-71
2022/01/25 08:29:16;;;;;;;12.40;7.22;;;3.20;99.90;;;;;;5014575;28;20532;-73
2022/01/25 08:31:42;;;;;;;15.05;9.57;;;3.30;99.90;;;;;;5014302;28;20207;-72
2022/01/25 08:34:10;;;;;;;18.90;10.05;;;3.70;99.90;;;;;;5033017;28;20249;-72
2022/01/25 08:36:36;;;;;;;15.20;9.05;;;4.20;99.90;;;;;;5015944;28;20193;-72
2022/01/25 08:39:04;;;;;;;14.27;10.70;;;4.90;99.90;;;;;;5015709;28;20206;-72
2022/01/25 08:41:30;;;;;;;11.73;8.10;;;5.60;99.90;;;;;;4999459;28;20531;-72
2022/01/25 08:43:55;;;;;;;13.70;9.77;;;6.30;99.90;;;;;;5032322;28;20413;-72
2022/01/25 08:46:23;;;;;;;14.43;9.90;;;7.00;99.90;;;;;;5032054;28;20283;-72
2022/01/25 08:48:50;;;;;;;10.87;8.33;;;7.80;99.90;;;;;;5031545;28;20299;-73
2022/01/25 08:51:16;;;;;;;16.43;9.00;;;8.30;99.90;;;;;;5015618;28;20458;-72
2022/01/25 08:53:44;;;;;;;16.83;9.10;;;8.70;99.90;;;;;;5031989;28;20430;-72
2022/01/25 08:56:11;;;;;;;13.93;9.50;;;9.20;99.90;;;;;;5032201;28;20166;-72
2022/01/25 08:58:37;;;;;;;8.30;7.60;;;9.60;99.90;;;;;;5014976;28;20463;-73
2022/01/25 09:01:04;;;;;;;10.80;8.90;;;10.00;99.10;;;;;;5015285;28;20405;-72
2022/01/25 09:03:30;;;;;;;10.33;8.47;;;10.30;97.80;;;;;;5032166;28;20390;-72
2022/01/25 09:05:55;;;;;;;11.90;9.27;;;10.60;96.60;;;;;;5013093;28;20433;-73
2022/01/25 09:08:23;;;;;;;12.33;8.13;;;11.00;95.60;;;;;;5013784;28;20312;-71
2022/01/25 09:10:51;;;;;;;9.70;8.70;;;11.20;94.90;;;;;;5014239;28;20182;-72
2022/01/25 09:13:18;;;;;;;9.57;8.40;;;11.30;93.20;;;;;;5014251;28;20389;-72
2022/01/25 09:15:44;;;;;;;9.60;8.00;;;11.20;92.50;;;;;;5014072;28;20373;-72
2022/01/25 09:18:10;;;;;;;12.17;8.67;;;11.20;93.30;;;;;;5012031;28;20389;-72
2022/01/25 09:20:36;;;;;;;11.07;8.90;;;11.40;93.70;;;;;;5013356;28;20499;-72
2022/01/25 09:23:02;;;;;;;13.57;9.90;;;11.60;93.20;;;;;;5013509;28;20207;-72
2022/01/25 09:25:28;;;;;;;13.13;9.43;;;11.90;91.90;;;;;;5013219;28;20396;-72
2022/01/25 09:27:53;;;;;;;10.40;8.30;;;11.90;91.00;;;;;;5013359;28;20212;-72
2022/01/25 09:30:19;;;;;;;12.17;10.70;;;12.00;92.30;;;;;;5013421;28;20424;-72
2022/01/25 09:32:48;;;;;;;11.37;8.70;;;12.00;91.50;;;;;;5013719;28;20217;-72
2022/01/25 09:35:14;;;;;;;9.77;8.67;;;12.20;91.40;;;;;;5012203;28;20182;-72
2022/01/25 09:37:42;;;;;;;11.90;9.83;;;12.40;91.50;;;;;;5013459;28;20851;-72
2022/01/25 09:40:09;;;;;;;11.87;8.80;;;12.50;91.00;;;;;;5012327;28;20416;-72
2022/01/25 09:42:36;;;;;;;13.00;9.00;;;12.80;90.90;;;;;;5013625;28;20425;-72
2022/01/25 09:45:02;;;;;;;10.40;9.17;;;13.30;90.60;;;;;;5013820;28;20419;-72
2022/01/25 09:47:28;;;;;;;8.87;7.93;;;13.40;88.10;;;;;;5013609;28;20967;-77
2022/01/25 09:49:53;;;;;;;11.17;9.97;;;13.40;88.70;;;;;;5013352;28;20444;-71
2022/01/25 09:52:20;;;;;;;11.60;8.23;;;13.20;88.60;;;;;;5013554;28;20207;-72
2022/01/25 09:54:54;;;;;;;11.57;8.17;;;12.90;87.20;;;;;;5013758;28;20172;-71
2022/01/25 09:57:19;;;;;;;12.37;9.60;;;12.80;88.00;;;;;;5013526;28;20896;-73
2022/01/25 09:59:45;;;;;;;10.77;8.77;;;12.60;88.60;;;;;;5012566;28;20449;-72
2022/01/25 10:02:11;;;;;;;11.87;10.27;;;12.50;88.70;;;;;;5013485;28;20245;-71
2022/01/25 10:04:39;;;;;;;10.03;8.60;;;12.60;90.00;;;;;;5013479;28;20178;-71
2022/01/25 10:07:06;;;;;;;11.07;9.40;;;12.60;88.60;;;;;;5013768;28;20629;-71
2022/01/25 10:09:32;;;;;;;10.73;8.93;;;12.50;88.90;;;;;;5012924;28;20426;-72
2022/01/25 10:12:16;;;;;;;13.20;9.20;;;12.70;89.30;;;;;;5013540;28;20825;-72
2022/01/25 10:14:53;;;;;;;9.30;8.47;;;12.90;88.80;;;;;;5013043;28;20448;-72
2022/01/25 10:17:32;;;;;;;8.67;7.70;;;12.90;87.80;;;;;;5013518;28;20425;-71
2022/01/25 10:19:57;;;;;;;10.87;8.50;;;12.90;87.80;;;;;;5013304;28;20739;-72
2022/01/25 10:22:23;;;;;;;9.73;8.73;;;12.90;87.70;;;;;;5013322;28;20443;-72
2022/01/25 10:24:49;;;;;;;11.53;8.47;;;12.90;87.70;;;;;;5013395;28;20189;-72
2022/01/25 10:27:15;;;;;;;10.53;8.63;;;12.80;88.40;;;;;;5013087;28;20735;-72
2022/01/25 10:29:41;;;;;;;11.77;8.97;;;12.70;88.50;;;;;;5011678;28;20211;-72
2022/01/25 10:32:13;;;;;;;11.70;9.07;;;12.80;88.40;;;;;;5017241;28;20435;-71
2022/01/25 10:34:46;;;;;;;9.33;8.10;;;12.50;87.50;;;;;;5015308;28;20191;-72
2022/01/25 10:37:13;;;;;;;9.90;8.87;;;12.40;88.40;;;;;;5017148;28;20425;-72
2022/01/25 10:39:42;;;;;;;9.47;8.00;;;12.40;89.30;;;;;;5016541;28;20449;-72
2022/01/25 10:42:19;;;;;;;10.53;8.63;;;12.40;88.90;;;;;;5016739;28;20903;-72
2022/01/25 10:44:57;;;;;;;12.87;10.60;;;12.40;90.30;;;;;;5017011;28;20424;-72
2022/01/25 10:47:46;;;;;;;11.50;8.50;;;12.40;90.10;;;;;;5017072;28;20437;-71
2022/01/25 10:50:12;;;;;;;10.33;8.20;;;12.40;89.60;;;;;;5016655;28;20902;-72
2022/01/25 10:52:38;;;;;;;13.23;9.40;;;12.40;89.90;;;;;;5015512;28;20515;-70
2022/01/25 10:55:08;;;;;;;11.43;9.80;;;12.40;90.00;;;;;;5016993;28;20626;-72
2022/01/25 10:57:34;;;;;;;12.93;10.53;;;12.40;90.40;;;;;;5016195;28;20436;-72
2022/01/25 11:00:10;;;;;;;12.17;9.23;;;12.40;90.50;;;;;;5016402;28;20449;-71
2022/01/25 11:02:47;;;;;;;11.27;9.30;;;12.20;90.10;;;;;;4999160;28;20443;-71
2022/01/25 11:05:13;;;;;;;12.20;10.17;;;11.80;90.30;;;;;;5016693;28;20393;-72
2022/01/25 11:07:45;;;;;;;10.67;8.03;;;11.20;91.10;;;;;;5016252;28;20725;-72
2022/01/25 11:10:19;;;;;;;14.40;9.20;;;11.10;92.20;;;;;;5031258;28;20465;-71
2022/01/25 11:13:02;;;;;;;13.50;10.27;;;11.00;92.20;;;;;;5015302;28;20433;-72
2022/01/25 11:15:28;;;;;;;14.30;11.00;;;10.90;92.50;;;;;;5016384;28;20494;-73
2022/01/25 11:17:53;;;;;;;9.50;8.40;;;10.50;92.80;;;;;;5015936;28;20467;-71
2022/01/25 11:20:19;;;;;;;12.67;10.17;;;10.40;93.00;;;;;;5016125;28;20195;-70
2022/01/25 11:22:45;;;;;;;11.23;8.70;;;10.30;93.50;;;;;;5015473;28;20178;-70
2022/01/25 11:25:17;;;;;;;14.77;10.00;;;10.10;93.80;;;;;;5016185;28;20184;-71
2022/01/25 11:27:45;;;;;;;12.97;10.83;;;9.30;94.70;;;;;;5015827;28;20409;-71
2022/01/25 11:30:17;;;;;;;18.80;12.10;;;8.50;95.90;;;;;;5015373;28;20536;-72
2022/01/25 11:32:52;;;;;;;13.45;9.50;;;8.00;96.90;;;;;;5015924;28;20485;-71
2022/01/25 11:35:23;;;;;;;14.27;10.85;;;7.40;98.50;;;;;;5015717;28;20189;-72
2022/01/25 11:37:50;;;;;;;11.48;8.52;;;7.10;99.90;;;;;;4999362;28;20653;-72
2022/01/25 11:40:27;;;;;;;11.10;8.32;;;6.70;99.90;;;;;;5014385;28;20669;-71
2022/01/25 11:42:59;;;;;;;13.20;9.75;;;6.50;99.90;;;;;;5015918;28;20217;-71
2022/01/25 11:45:38;;;;;;;14.02;9.52;;;6.30;99.90;;;;;;5015862;28;20556;-71
2022/01/25 11:48:04;;;;;;;16.20;10.07;;;6.00;99.90;;;;;;5014090;28;20182;-71
2022/01/25 11:50:43;;;;;;;11.02;9.23;;;5.80;99.90;;;;;;5015329;28;20714;-72
2022/01/25 11:53:11;;;;;;;12.57;10.00;;;5.70;99.90;;;;;;5015391;28;20240;-72
2022/01/25 11:55:41;;;;;;;13.52;11.07;;;5.70;99.90;;;;;;5015263;28;20184;-71
2022/01/25 11:58:13;;;;;;;16.05;11.70;;;5.70;99.90;;;;;;5013226;28;20551;-71
2022/01/25 12:00:54;;;;;;;17.13;10.63;;;5.70;99.90;;;;;;5009988;28;20201;-72
2022/01/25 12:03:31;;;;;;;17.08;8.18;;;5.60;99.90;;;;;;4996009;28;20178;-71
2022/01/25 12:05:59;;;;;;;12.32;9.80;;;5.60;99.90;;;;;;5010359;28;20717;-71
2022/01/25 12:14:41;;;;;;;16.38;11.35;;;5.40;99.90;;;;;;5015302;28;20182;-72
2022/01/25 12:17:12;;;;;;;18.27;9.82;;;5.30;99.90;;;;;;5012934;28;20271;-71
2022/01/25 12:19:51;;;;;;;14.90;9.38;;;5.20;99.90;;;;;;5012370;28;20224;-71
2022/01/25 12:27:48;;;;;;;13.73;10.32;;;5.20;99.90;;;;;;5012580;28;20180;-71
2022/01/25 12:30:25;;;;;;;15.00;11.43;;;5.20;99.90;;;;;;5012348;28;20289;-71
2022/01/25 12:32:55;;;;;;;17.52;10.68;;;5.20;99.90;;;;;;5012673;28;20240;-71
2022/01/25 12:36:00;;;;;;;17.00;10.85;;;5.20;99.90;;;;;;5012449;28;20644;-71
2022/01/25 12:38:47;;;;;;;11.25;8.13;;;5.10;99.90;;;;;;5011277;28;20687;-71
2022/01/25 12:41:25;;;;;;;20.10;11.15;;;5.10;99.90;;;;;;5012623;28;20179;-72
2022/01/25 12:43:57;;;;;;;15.43;10.07;;;5.10;99.90;;;;;;5012323;28;20234;-71
2022/01/25 12:46:26;;;;;;;18.08;11.52;;;5.10;99.90;;;;;;5012744;28;20180;-71
2022/01/25 12:48:59;;;;;;;17.83;13.35;;;5.20;99.90;;;;;;5012612;28;20203;-71
2022/01/25 12:51:33;;;;;;;16.38;12.98;;;5.20;99.90;;;;;;5012108;28;20258;-71
2022/01/25 12:54:02;;;;;;;19.15;11.85;;;5.20;99.90;;;;;;5012031;28;20187;-71
2022/01/25 12:56:31;;;;;;;14.57;10.88;;;5.20;99.90;;;;;;5011588;28;20222;-71
2022/01/25 12:59:01;;;;;;;16.33;10.90;;;5.30;99.90;;;;;;5014036;28;20192;-71
2022/01/25 13:01:28;;;;;;;19.92;11.48;;;5.20;99.90;;;;;;5012854;28;20627;-71
2022/01/25 13:03:57;;;;;;;16.02;11.13;;;5.30;99.90;;;;;;5014227;28;20176;-70
2022/01/25 13:06:27;;;;;;;16.73;11.75;;;5.30;99.90;;;;;;5014033;28;20540;-71
2022/01/25 13:09:24;;;;;;;15.88;12.10;;;5.30;99.90;;;;;;4994318;28;20202;-71
2022/01/25 13:17:15;;;;;;;19.00;11.95;;;5.30;99.90;;;;;;5012736;28;20775;-71
2022/01/25 13:19:55;;;;;;;18.30;12.32;;;5.30;99.90;;;;;;5013774;28;20223;-72
2022/01/25 13:22:45;;;;;;;17.50;11.23;;;5.30;99.90;;;;;;5013805;28;20596;-73
2022/01/25 13:25:31;;;;;;;22.92;13.32;;;5.30;99.90;;;;;;4994590;28;20182;-72
2022/01/25 13:28:01;;;;;;;16.13;11.80;;;5.30;99.90;;;;;;4992635;28;20596;-73
2022/01/25 13:30:41;;;;;;;18.15;11.15;;;5.30;99.90;;;;;;4991717;28;20218;-72
2022/01/25 13:33:09;;;;;;;20.45;11.10;;;5.20;99.90;;;;;;4992867;28;20187;-73
2022/01/25 13:35:38;;;;;;;18.15;11.38;;;5.30;99.90;;;;;;4993141;28;20171;-73
2022/01/25 13:38:30;;;;;;;18.23;11.60;;;5.20;99.90;;;;;;5012044;28;20212;-74
2022/01/25 13:41:07;;;;;;;22.00;14.25;;;5.20;99.90;;;;;;5010165;28;20587;-74
2022/01/25 13:46:06;;;;;;;14.52;10.68;;;5.10;99.90;;;;;;5011774;28;20187;-72
2022/01/25 13:48:33;;;;;;;15.35;12.15;;;5.10;99.90;;;;;;5011559;28;20681;-72
2022/01/25 13:51:06;;;;;;;16.73;12.45;;;5.00;99.90;;;;;;5011208;28;20626;-72
2022/01/25 13:53:32;;;;;;;17.15;12.40;;;5.00;99.90;;;;;;5012265;28;20257;-73
2022/01/25 13:55:59;;;;;;;20.55;13.38;;;5.10;99.90;;;;;;5011819;28;20170;-72
2022/01/25 13:58:34;;;;;;;16.88;13.73;;;5.10;99.90;;;;;;5010732;28;20183;-76
2022/01/25 14:01:03;;;;;;;21.27;14.65;;;5.00;99.90;;;;;;5010230;28;20179;-73
2022/01/25 14:03:42;;;;;;;21.20;14.27;;;4.90;99.90;;;;;;5011659;28;20179;-73
2022/01/25 14:06:50;;;;;;;24.23;15.68;;;4.80;99.90;;;;;;5000576;28;20187;-73
2022/01/25 14:09:33;;;;;;;20.02;12.63;;;4.70;99.90;;;;;;5002783;28;20217;-72
2022/01/25 14:23:21;;;;;;;16.52;12.07;;;4.10;99.90;;;;;;5017386;28;20183;-72
2022/01/25 14:25:46;;;;;;;21.42;13.40;;;4.00;99.90;;;;;;5016939;28;20309;-72
2022/01/25 14:28:24;;;;;;;17.33;13.10;;;3.80;99.90;;;;;;5015369;28;20229;-72
2022/01/25 14:30:56;;;;;;;25.80;16.13;;;3.70;99.90;;;;;;5016766;28;20162;-71
2022/01/25 14:33:23;;;;;;;28.27;13.00;;;3.50;99.90;;;;;;5017006;28;20179;-73
2022/01/25 14:35:56;;;;;;;23.98;14.98;;;3.40;99.90;;;;;;5017198;28;20166;-71
2022/01/25 14:38:36;;;;;;;22.63;12.02;;;3.40;99.90;;;;;;5016485;28;20159;-72
2022/01/25 14:41:04;;;;;;;18.38;12.52;;;3.30;99.90;;;;;;5017727;28;20509;-72
2022/01/25 14:43:47;;;;;;;17.38;13.10;;;3.20;99.90;;;;;;5016780;28;20170;-73
2022/01/25 14:46:17;;;;;;;24.83;15.38;;;3.10;99.90;;;;;;5016564;28;20533;-73
2022/01/25 14:48:54;;;;;;;18.05;11.82;;;3.00;99.90;;;;;;5015970;28;20195;-72
2022/01/25 14:51:19;;;;;;;15.52;9.02;;;3.00;99.90;;;;;;5016710;28;20564;-72
2022/01/25 14:53:45;;;;;;;26.03;11.97;;;2.90;99.90;;;;;;5015762;28;20175;-72
2022/01/25 14:56:13;;;;;;;22.80;14.77;;;2.90;99.90;;;;;;5014946;28;20660;-73
2022/01/25 15:01:19;;;;;;;21.27;10.38;;;2.80;99.90;;;;;;5016806;28;20186;-73
2022/01/25 15:03:45;;;;;;;24.20;15.43;;;2.80;99.90;;;;;;5016613;28;20175;-72
2022/01/25 15:06:15;;;;;;;28.17;12.33;;;2.80;99.90;;;;;;5015927;28;20175;-72
2022/01/25 15:08:53;;;;;;;30.92;13.93;;;2.80;99.90;;;;;;5015722;28;20540;-72
2022/01/25 15:11:21;;;;;;;18.02;10.85;;;2.80;99.90;;;;;;5016588;28;20198;-71
2022/01/25 15:13:47;;;;;;;24.13;14.95;;;2.80;99.90;;;;;;5014962;28;20185;-72
2022/01/25 15:16:12;;;;;;;25.88;15.18;;;2.80;99.90;;;;;;5012933;28;20261;-71
2022/01/25 15:18:40;;;;;;;23.53;13.67;;;2.80;99.90;;;;;;5013612;28;20208;-72